sensor_id;sensor_type;location;lat;lon;timestamp;pressure;altitude;pressure_sealevel;temperature;humidity
65329;BME280;51941;52.210;5.158;2023-03-22T00:00:09;100852.03;;;9.18;100.00
65329;BME280;51941;52.210;5.158;2023-03-22T00:02:39;100839.00;;;9.17;100.00
65329;BME280;51941;52.210;5.158;2023-03-22T00:05:06;100849.56;;;9.17;100.00
65329;BME280;51941;52.210;5.158;2023-03-22T00:07:33;100836.19;;;9.18;100.00
65329;BME280;51941;52.210;5.158;2023-03-22T00:10:03;100833.34;;;9.20;100.00
65329;BME280;51941;52.210;5.158;2023-03-22T00:12:30;100824.59;;;9.20;100.00
65329;BME280;51941;52.210;5.158;2023-03-22T00:14:58;100829.88;;;9.20;100.00
65329;BME280;51941;52.210;5.158;2023-03-22T00:17:25;100817.63;;;9.25;100.00
65329;BME280;51941;52.210;5.158;2023-03-22T00:19:52;100780.25;;;9.03;100.00
65329;BME280;51941;52.210;5.158;2023-03-22T00:22:19;100810.06;;;9.29;100.00
65329;BME280;51941;52.210;5.158;2023-03-22T00:24:46;100814.28;;;9.30;100.00
65329;BME280;51941;52.210;5.158;2023-03-22T00:27:13;100809.00;;;9.30;100.00
65329;BME280;51941;52.210;5.158;2023-03-22T00:29:40;100808.44;;;9.28;100.00
65329;BME280;51941;52.210;5.158;2023-03-22T00:32:09;100803.50;;;9.31;100.00
65329;BME280;51941;52.210;5.158;2023-03-22T00:34:36;100804.53;;;9.30;100.00
65329;BME280;51941;52.210;5.158;2023-03-22T00:37:02;100811.00;;;9.34;100.00
65329;BME280;51941;52.210;5.158;2023-03-22T00:39:29;100790.38;;;9.25;100.00
65329;BME280;51941;52.210;5.158;2023-03-22T00:41:56;100792.34;;;9.29;100.00
65329;BME280;51941;52.210;5.158;2023-03-22T00:44:22;100792.94;;;9.31;100.00
65329;BME280;51941;52.210;5.158;2023-03-22T00:46:49;100791.91;;;9.32;100.00
65329;BME280;51941;52.210;5.158;2023-03-22T00:49:17;100790.28;;;9.31;100.00
65329;BME280;51941;52.210;5.158;2023-03-22T00:51:44;100740.09;;;9.01;100.00
65329;BME280;51941;52.210;5.158;2023-03-22T00:54:11;100779.66;;;9.38;100.00
65329;BME280;51941;52.210;5.158;2023-03-22T00:56:41;100776.22;;;9.37;100.00
65329;BME280;51941;52.210;5.158;2023-03-22T00:59:13;100739.69;;;9.16;100.00
65329;BME280;51941;52.210;5.158;2023-03-22T01:01:42;100779.56;;;9.44;100.00
65329;BME280;51941;52.210;5.158;2023-03-22T01:04:09;100775.44;;;9.48;100.00
65329;BME280;51941;52.210;5.158;2023-03-22T01:06:41;100768.69;;;9.52;100.00
65329;BME280;51941;52.210;5.158;2023-03-22T01:09:07;100756.72;;;9.50;100.00
65329;BME280;51941;52.210;5.158;2023-03-22T01:11:40;100756.41;;;9.58;100.00
65329;BME280;51941;52.210;5.158;2023-03-22T01:14:07;100752.28;;;9.62;100.00
65329;BME280;51941;52.210;5.158;2023-03-22T01:16:34;100752.06;;;9.64;100.00
65329;BME280;51941;52.210;5.158;2023-03-22T01:19:01;100747.34;;;9.66;100.00
65329;BME280;51941;52.210;5.158;2023-03-22T01:21:28;100741.59;;;9.69;100.00
65329;BME280;51941;52.210;5.158;2023-03-22T01:23:56;100741.97;;;9.72;100.00
65329;BME280;51941;52.210;5.158;2023-03-22T01:26:23;100718.03;;;9.67;100.00
65329;BME280;51941;52.210;5.158;2023-03-22T01:28:49;100705.84;;;9.66;100.00
65329;BME280;51941;52.210;5.158;2023-03-22T01:31:16;100717.50;;;9.77;100.00
65329;BME280;51941;52.210;5.158;2023-03-22T01:33:43;100721.53;;;9.79;100.00
65329;BME280;51941;52.210;5.158;2023-03-22T01:36:10;100722.09;;;9.81;100.00
65329;BME280;51941;52.210;5.158;2023-03-22T01:38:37;100711.53;;;9.81;100.00
65329;BME280;51941;52.210;5.158;2023-03-22T01:41:05;100704.28;;;9.77;100.00
65329;BME280;51941;52.210;5.158;2023-03-22T01:43:36;100701.84;;;9.75;100.00
65329;BME280;51941;52.210;5.158;2023-03-22T01:46:03;100694.41;;;9.72;100.00
65329;BME280;51941;52.210;5.158;2023-03-22T01:48:32;100691.28;;;9.75;100.00
65329;BME280;51941;52.210;5.158;2023-03-22T01:51:01;100680.81;;;9.69;100.00
65329;BME280;51941;52.210;5.158;2023-03-22T01:53:39;100677.59;;;9.67;100.00
65329;BME280;51941;52.210;5.158;2023-03-22T01:56:09;100675.53;;;9.69;100.00
65329;BME280;51941;52.210;5.158;2023-03-22T01:58:37;100667.81;;;9.67;100.00
65329;BME280;51941;52.210;5.158;2023-03-22T02:01:08;100667.72;;;9.62;100.00
65329;BME280;51941;52.210;5.158;2023-03-22T02:03:47;100641.28;;;9.50;100.00
65329;BME280;51941;52.210;5.158;2023-03-22T02:06:16;100653.00;;;9.54;100.00
65329;BME280;51941;52.210;5.158;2023-03-22T02:08:44;100649.09;;;9.57;100.00
65329;BME280;51941;52.210;5.158;2023-03-22T02:11:22;100641.38;;;9.55;100.00
65329;BME280;51941;52.210;5.158;2023-03-22T02:14:13;100618.06;;;9.41;100.00
65329;BME280;51941;52.210;5.158;2023-03-22T02:17:16;100633.72;;;9.54;100.00
65329;BME280;51941;52.210;5.158;2023-03-22T02:20:23;100626.59;;;9.54;100.00
65329;BME280;51941;52.210;5.158;2023-03-22T02:26:32;100621.16;;;9.49;100.00
65329;BME280;51941;52.210;5.158;2023-03-22T02:29:13;100622.09;;;9.55;100.00
65329;BME280;51941;52.210;5.158;2023-03-22T02:32:25;100614.41;;;9.53;100.00
65329;BME280;51941;52.210;5.158;2023-03-22T02:35:20;100613.38;;;9.54;100.00
65329;BME280;51941;52.210;5.158;2023-03-22T02:38:06;100608.63;;;9.56;100.00
65329;BME280;51941;52.210;5.158;2023-03-22T02:40:47;100606.81;;;9.57;100.00
65329;BME280;51941;52.210;5.158;2023-03-22T02:43:21;100604.75;;;9.59;100.00
65329;BME280;51941;52.210;5.158;2023-03-22T02:46:01;100600.94;;;9.67;100.00
65329;BME280;51941;52.210;5.158;2023-03-22T02:48:34;100602.78;;;9.66;100.00
65329;BME280;51941;52.210;5.158;2023-03-22T02:51:09;100578.31;;;9.47;100.00
65329;BME280;51941;52.210;5.158;2023-03-22T02:53:41;100593.38;;;9.70;100.00
65329;BME280;51941;52.210;5.158;2023-03-22T02:56:16;100582.81;;;9.70;100.00
65329;BME280;51941;52.210;5.158;2023-03-22T02:58:46;100590.97;;;9.69;100.00
65329;BME280;51941;52.210;5.158;2023-03-22T03:01:17;100584.06;;;9.68;100.00
65329;BME280;51941;52.210;5.158;2023-03-22T03:03:46;100579.94;;;9.72;100.00
65329;BME280;51941;52.210;5.158;2023-03-22T03:06:17;100575.91;;;9.69;100.00
65329;BME280;51941;52.210;5.158;2023-03-22T03:08:47;100559.94;;;9.52;100.00
65329;BME280;51941;52.210;5.158;2023-03-22T03:11:17;100566.03;;;9.53;100.00
65329;BME280;51941;52.210;5.158;2023-03-22T03:13:46;100579.13;;;9.60;100.00
65329;BME280;51941;52.210;5.158;2023-03-22T03:16:14;100588.66;;;9.61;100.00
65329;BME280;51941;52.210;5.158;2023-03-22T03:18:46;100589.00;;;9.52;100.00
65329;BME280;51941;52.210;5.158;2023-03-22T03:21:28;100577.50;;;9.47;100.00
65329;BME280;51941;52.210;5.158;2023-03-22T03:24:13;100565.44;;;9.39;100.00
65329;BME280;51941;52.210;5.158;2023-03-22T03:26:51;100591.66;;;9.52;100.00
65329;BME280;51941;52.210;5.158;2023-03-22T03:29:28;100592.91;;;9.50;100.00
65329;BME280;51941;52.210;5.158;2023-03-22T03:32:03;100573.94;;;9.41;100.00
65329;BME280;51941;52.210;5.158;2023-03-22T03:34:35;100550.53;;;9.33;100.00
65329;BME280;51941;52.210;5.158;2023-03-22T03:37:10;100569.91;;;9.39;100.00
65329;BME280;51941;52.210;5.158;2023-03-22T03:39:43;100582.13;;;9.51;100.00
65329;BME280;51941;52.210;5.158;2023-03-22T03:42:15;100567.28;;;9.50;100.00
65329;BME280;51941;52.210;5.158;2023-03-22T03:44:44;100547.75;;;9.40;100.00
65329;BME280;51941;52.210;5.158;2023-03-22T03:47:11;100575.69;;;9.59;100.00
65329;BME280;51941;52.210;5.158;2023-03-22T03:49:38;100574.75;;;9.65;100.00
65329;BME280;51941;52.210;5.158;2023-03-22T03:52:06;100561.88;;;9.57;100.00
65329;BME280;51941;52.210;5.158;2023-03-22T03:54:33;100577.03;;;9.73;100.00
65329;BME280;51941;52.210;5.158;2023-03-22T03:57:00;100563.50;;;9.58;100.00
65329;BME280;51941;52.210;5.158;2023-03-22T03:59:28;100583.47;;;9.77;100.00
65329;BME280;51941;52.210;5.158;2023-03-22T04:01:57;100578.56;;;9.81;100.00
65329;BME280;51941;52.210;5.158;2023-03-22T04:04:28;100570.72;;;9.74;100.00
65329;BME280;51941;52.210;5.158;2023-03-22T04:07:03;100578.28;;;9.82;100.00
65329;BME280;51941;52.210;5.158;2023-03-22T04:09:35;100575.34;;;9.79;100.00
65329;BME280;51941;52.210;5.158;2023-03-22T04:12:12;100571.66;;;9.80;100.00
65329;BME280;51941;52.210;5.158;2023-03-22T04:14:55;100570.63;;;9.81;100.00
65329;BME280;51941;52.210;5.158;2023-03-22T04:17:25;100567.97;;;9.81;100.00
65329;BME280;51941;52.210;5.158;2023-03-22T04:19:54;100570.50;;;9.76;100.00
65329;BME280;51941;52.210;5.158;2023-03-22T04:22:21;100564.75;;;9.79;100.00
65329;BME280;51941;52.210;5.158;2023-03-22T04:24:48;100559.47;;;9.79;100.00
65329;BME280;51941;52.210;5.158;2023-03-22T04:27:17;100546.94;;;9.74;100.00
65329;BME280;51941;52.210;5.158;2023-03-22T04:29:53;100540.66;;;9.64;100.00
65329;BME280;51941;52.210;5.158;2023-03-22T04:32:39;100552.22;;;9.74;100.00
65329;BME280;51941;52.210;5.158;2023-03-22T04:35:08;100540.75;;;9.69;100.00
65329;BME280;51941;52.210;5.158;2023-03-22T04:37:37;100549.94;;;9.78;100.00
65329;BME280;51941;52.210;5.158;2023-03-22T04:40:11;100549.69;;;9.79;100.00
65329;BME280;51941;52.210;5.158;2023-03-22T04:43:04;100556.34;;;9.82;100.00
65329;BME280;51941;52.210;5.158;2023-03-22T04:45:52;100510.53;;;9.65;100.00
65329;BME280;51941;52.210;5.158;2023-03-22T04:48:27;100543.34;;;9.92;100.00
65329;BME280;51941;52.210;5.158;2023-03-22T04:50:56;100546.56;;;9.94;100.00
65329;BME280;51941;52.210;5.158;2023-03-22T04:53:30;100537.25;;;9.91;100.00
65329;BME280;51941;52.210;5.158;2023-03-22T04:56:01;100505.34;;;9.70;100.00
65329;BME280;51941;52.210;5.158;2023-03-22T04:58:30;100538.06;;;9.92;100.00
65329;BME280;51941;52.210;5.158;2023-03-22T05:00:57;100536.13;;;9.87;100.00
65329;BME280;51941;52.210;5.158;2023-03-22T05:03:24;100530.13;;;9.92;100.00
65329;BME280;51941;52.210;5.158;2023-03-22T05:05:53;100529.91;;;9.93;100.00
65329;BME280;51941;52.210;5.158;2023-03-22T05:08:23;100524.59;;;9.93;100.00
65329;BME280;51941;52.210;5.158;2023-03-22T05:10:52;100526.22;;;9.94;100.00
65329;BME280;51941;52.210;5.158;2023-03-22T05:13:20;100520.13;;;9.94;100.00
65329;BME280;51941;52.210;5.158;2023-03-22T05:15:48;100521.66;;;9.90;100.00
65329;BME280;51941;52.210;5.158;2023-03-22T05:18:21;100523.47;;;9.89;100.00
65329;BME280;51941;52.210;5.158;2023-03-22T05:20:54;100523.72;;;9.88;100.00
65329;BME280;51941;52.210;5.158;2023-03-22T05:23:44;100523.59;;;9.83;100.00
65329;BME280;51941;52.210;5.158;2023-03-22T05:26:13;100519.47;;;9.87;100.00
65329;BME280;51941;52.210;5.158;2023-03-22T05:28:41;100526.59;;;9.86;100.00
65329;BME280;51941;52.210;5.158;2023-03-22T05:31:18;100495.81;;;9.80;100.00
65329;BME280;51941;52.210;5.158;2023-03-22T05:34:19;100509.56;;;9.94;100.00
65329;BME280;51941;52.210;5.158;2023-03-22T05:36:47;100517.84;;;9.98;100.00
65329;BME280;51941;52.210;5.158;2023-03-22T05:39:28;100515.50;;;10.01;100.00
65329;BME280;51941;52.210;5.158;2023-03-22T05:41:57;100509.41;;;10.01;100.00
65329;BME280;51941;52.210;5.158;2023-03-22T05:44:24;100500.44;;;10.02;100.00
65329;BME280;51941;52.210;5.158;2023-03-22T05:47:00;100500.06;;;10.10;100.00
65329;BME280;51941;52.210;5.158;2023-03-22T05:49:47;100502.94;;;10.08;100.00
65329;BME280;51941;52.210;5.158;2023-03-22T05:52:15;100491.34;;;10.09;100.00
65329;BME280;51941;52.210;5.158;2023-03-22T05:54:49;100495.13;;;10.13;100.00
65329;BME280;51941;52.210;5.158;2023-03-22T05:57:16;100490.63;;;10.14;100.00
65329;BME280;51941;52.210;5.158;2023-03-22T05:59:43;100490.41;;;10.15;100.00
65329;BME280;51941;52.210;5.158;2023-03-22T06:02:16;100461.72;;;9.96;100.00
65329;BME280;51941;52.210;5.158;2023-03-22T06:04:43;100488.22;;;10.12;100.00
65329;BME280;51941;52.210;5.158;2023-03-22T06:07:15;100491.53;;;10.19;100.00
65329;BME280;51941;52.210;5.158;2023-03-22T06:09:46;100492.34;;;10.20;100.00
65329;BME280;51941;52.210;5.158;2023-03-22T06:12:17;100478.09;;;10.09;100.00
65329;BME280;51941;52.210;5.158;2023-03-22T06:14:55;100491.16;;;10.27;100.00
65329;BME280;51941;52.210;5.158;2023-03-22T06:17:40;100499.84;;;10.40;100.00
65329;BME280;51941;52.210;5.158;2023-03-22T06:20:11;100492.66;;;10.52;100.00
65329;BME280;51941;52.210;5.158;2023-03-22T06:22:44;100491.94;;;10.56;100.00
65329;BME280;51941;52.210;5.158;2023-03-22T06:25:11;100495.34;;;10.68;100.00
65329;BME280;51941;52.210;5.158;2023-03-22T06:31:07;100488.00;;;10.87;100.00
65329;BME280;51941;52.210;5.158;2023-03-22T06:34:00;100490.47;;;10.94;100.00
65329;BME280;51941;52.210;5.158;2023-03-22T06:40:09;100496.66;;;10.99;100.00
65329;BME280;51941;52.210;5.158;2023-03-22T06:45:51;100470.91;;;10.95;100.00
65329;BME280;51941;52.210;5.158;2023-03-22T06:48:24;100498.81;;;11.19;100.00
65329;BME280;51941;52.210;5.158;2023-03-22T06:51:07;100504.56;;;11.33;100.00
65329;BME280;51941;52.210;5.158;2023-03-22T06:53:36;100500.16;;;11.38;100.00
65329;BME280;51941;52.210;5.158;2023-03-22T06:56:05;100490.16;;;11.46;100.00
65329;BME280;51941;52.210;5.158;2023-03-22T06:58:43;100494.66;;;11.45;100.00
65329;BME280;51941;52.210;5.158;2023-03-22T07:01:09;100491.22;;;11.44;100.00
65329;BME280;51941;52.210;5.158;2023-03-22T07:03:36;100482.69;;;11.42;100.00
65329;BME280;51941;52.210;5.158;2023-03-22T07:06:10;100491.44;;;11.43;100.00
65329;BME280;51941;52.210;5.158;2023-03-22T07:08:40;100495.66;;;11.39;100.00
65329;BME280;51941;52.210;5.158;2023-03-22T07:11:12;100508.56;;;11.35;100.00
65329;BME280;51941;52.210;5.158;2023-03-22T07:13:55;100490.50;;;11.32;100.00
65329;BME280;51941;52.210;5.158;2023-03-22T07:16:22;100495.00;;;11.32;100.00
65329;BME280;51941;52.210;5.158;2023-03-22T07:18:56;100504.25;;;11.29;100.00
65329;BME280;51941;52.210;5.158;2023-03-22T07:21:22;100487.00;;;11.27;100.00
65329;BME280;51941;52.210;5.158;2023-03-22T07:23:54;100479.91;;;11.32;100.00
65329;BME280;51941;52.210;5.158;2023-03-22T07:26:25;100483.25;;;11.44;100.00
65329;BME280;51941;52.210;5.158;2023-03-22T07:28:55;100478.28;;;11.48;100.00
65329;BME280;51941;52.210;5.158;2023-03-22T07:31:26;100480.31;;;11.63;100.00
65329;BME280;51941;52.210;5.158;2023-03-22T07:34:03;100480.06;;;11.86;100.00
65329;BME280;51941;52.210;5.158;2023-03-22T07:36:37;100486.88;;;11.99;100.00
65329;BME280;51941;52.210;5.158;2023-03-22T07:39:08;100459.97;;;11.90;100.00
65329;BME280;51941;52.210;5.158;2023-03-22T07:41:40;100466.94;;;11.96;100.00
65329;BME280;51941;52.210;5.158;2023-03-22T07:44:22;100418.34;;;11.69;100.00
65329;BME280;51941;52.210;5.158;2023-03-22T07:47:15;100466.19;;;12.01;100.00
65329;BME280;51941;52.210;5.158;2023-03-22T07:49:47;100473.19;;;12.12;100.00
65329;BME280;51941;52.210;5.158;2023-03-22T07:52:18;100472.16;;;12.13;100.00
65329;BME280;51941;52.210;5.158;2023-03-22T07:54:46;100466.19;;;12.23;100.00
65329;BME280;51941;52.210;5.158;2023-03-22T07:57:14;100474.47;;;12.26;100.00
65329;BME280;51941;52.210;5.158;2023-03-22T07:59:47;100473.09;;;12.24;100.00
65329;BME280;51941;52.210;5.158;2023-03-22T08:02:14;100474.75;;;12.30;100.00
65329;BME280;51941;52.210;5.158;2023-03-22T08:04:46;100473.94;;;12.29;100.00
65329;BME280;51941;52.210;5.158;2023-03-22T08:07:17;100460.44;;;12.09;99.14
65329;BME280;51941;52.210;5.158;2023-03-22T08:09:46;100470.53;;;12.34;99.40
65329;BME280;51941;52.210;5.158;2023-03-22T08:12:15;100480.91;;;12.35;99.30
65329;BME280;51941;52.210;5.158;2023-03-22T08:14:49;100481.72;;;12.36;99.33
65329;BME280;51941;52.210;5.158;2023-03-22T08:17:21;100480.16;;;12.40;99.39
65329;BME280;51941;52.210;5.158;2023-03-22T08:19:47;100484.06;;;12.32;98.84
65329;BME280;51941;52.210;5.158;2023-03-22T08:22:20;100476.69;;;12.39;98.82
65329;BME280;51941;52.210;5.158;2023-03-22T08:25:08;100464.53;;;12.43;98.72
65329;BME280;51941;52.210;5.158;2023-03-22T08:27:38;100478.84;;;12.42;98.36
65329;BME280;51941;52.210;5.158;2023-03-22T08:30:06;100482.66;;;12.51;98.69
65329;BME280;51941;52.210;5.158;2023-03-22T08:32:34;100431.75;;;12.28;99.48
65329;BME280;51941;52.210;5.158;2023-03-22T08:35:03;100474.03;;;12.66;99.27
65329;BME280;51941;52.210;5.158;2023-03-22T08:37:30;100403.31;;;12.23;99.04
65329;BME280;51941;52.210;5.158;2023-03-22T08:40:00;100478.25;;;12.62;98.19
65329;BME280;51941;52.210;5.158;2023-03-22T08:42:42;100477.47;;;12.67;98.64
65329;BME280;51941;52.210;5.158;2023-03-22T08:45:09;100472.72;;;12.69;98.55
65329;BME280;51941;52.210;5.158;2023-03-22T08:47:42;100474.03;;;12.66;98.30
65329;BME280;51941;52.210;5.158;2023-03-22T08:50:11;100470.78;;;12.59;98.50
65329;BME280;51941;52.210;5.158;2023-03-22T08:52:46;100474.13;;;12.49;97.90
65329;BME280;51941;52.210;5.158;2023-03-22T08:55:20;100477.56;;;12.45;98.49
65329;BME280;51941;52.210;5.158;2023-03-22T08:58:07;100481.75;;;12.41;98.85
65329;BME280;51941;52.210;5.158;2023-03-22T09:00:43;100453.59;;;12.13;99.84
65329;BME280;51941;52.210;5.158;2023-03-22T09:03:14;100476.09;;;12.32;100.00
65329;BME280;51941;52.210;5.158;2023-03-22T09:05:42;100485.91;;;12.32;100.00
65329;BME280;51941;52.210;5.158;2023-03-22T09:08:10;100483.56;;;12.35;100.00
65329;BME280;51941;52.210;5.158;2023-03-22T09:10:40;100489.56;;;12.26;100.00
65329;BME280;51941;52.210;5.158;2023-03-22T09:13:14;100476.06;;;12.27;100.00
65329;BME280;51941;52.210;5.158;2023-03-22T09:15:49;100451.50;;;12.15;100.00
65329;BME280;51941;52.210;5.158;2023-03-22T09:18:21;100487.53;;;12.33;100.00
65329;BME280;51941;52.210;5.158;2023-03-22T09:20:49;100482.41;;;12.26;100.00
65329;BME280;51941;52.210;5.158;2023-03-22T09:23:19;100437.75;;;11.96;100.00
65329;BME280;51941;52.210;5.158;2023-03-22T09:25:46;100475.72;;;12.18;100.00
65329;BME280;51941;52.210;5.158;2023-03-22T09:28:18;100462.31;;;12.08;100.00
65329;BME280;51941;52.210;5.158;2023-03-22T09:30:45;100479.03;;;12.09;100.00
65329;BME280;51941;52.210;5.158;2023-03-22T09:33:14;100468.09;;;12.05;100.00
65329;BME280;51941;52.210;5.158;2023-03-22T09:35:44;100463.00;;;11.99;100.00
65329;BME280;51941;52.210;5.158;2023-03-22T09:38:12;100483.69;;;12.02;100.00
65329;BME280;51941;52.210;5.158;2023-03-22T09:40:48;100476.19;;;11.94;100.00
65329;BME280;51941;52.210;5.158;2023-03-22T09:43:18;100472.13;;;11.86;100.00
65329;BME280;51941;52.210;5.158;2023-03-22T09:45:47;100467.25;;;11.78;100.00
65329;BME280;51941;52.210;5.158;2023-03-22T09:48:18;100468.47;;;11.70;100.00
65329;BME280;51941;52.210;5.158;2023-03-22T09:50:47;100466.81;;;11.64;100.00
65329;BME280;51941;52.210;5.158;2023-03-22T09:53:15;100459.31;;;11.56;100.00
65329;BME280;51941;52.210;5.158;2023-03-22T09:55:45;100454.63;;;11.63;100.00
65329;BME280;51941;52.210;5.158;2023-03-22T09:58:23;100477.63;;;11.79;100.00
65329;BME280;51941;52.210;5.158;2023-03-22T10:00:55;100464.34;;;11.79;100.00
65329;BME280;51941;52.210;5.158;2023-03-22T10:03:33;100470.22;;;11.81;100.00
65329;BME280;51941;52.210;5.158;2023-03-22T10:06:17;100425.38;;;11.58;100.00
65329;BME280;51941;52.210;5.158;2023-03-22T10:08:58;100462.75;;;11.78;100.00
65329;BME280;51941;52.210;5.158;2023-03-22T10:11:38;100465.97;;;11.80;100.00
65329;BME280;51941;52.210;5.158;2023-03-22T10:14:18;100475.44;;;11.76;100.00
65329;BME280;51941;52.210;5.158;2023-03-22T10:16:50;100453.69;;;11.74;100.00
65329;BME280;51941;52.210;5.158;2023-03-22T10:19:21;100462.81;;;11.84;100.00
65329;BME280;51941;52.210;5.158;2023-03-22T10:22:25;100451.22;;;11.68;100.00
65329;BME280;51941;52.210;5.158;2023-03-22T10:24:54;100464.69;;;11.83;100.00
65329;BME280;51941;52.210;5.158;2023-03-22T10:27:22;100478.78;;;11.89;100.00
65329;BME280;51941;52.210;5.158;2023-03-22T10:29:56;100483.03;;;11.90;100.00
65329;BME280;51941;52.210;5.158;2023-03-22T10:32:40;100476.69;;;11.91;100.00
65329;BME280;51941;52.210;5.158;2023-03-22T10:35:12;100484.31;;;11.87;100.00
65329;BME280;51941;52.210;5.158;2023-03-22T10:37:40;100479.09;;;11.92;100.00
65329;BME280;51941;52.210;5.158;2023-03-22T10:40:15;100492.59;;;11.91;100.00
65329;BME280;51941;52.210;5.158;2023-03-22T10:42:49;100480.06;;;11.86;100.00
65329;BME280;51941;52.210;5.158;2023-03-22T10:45:42;100414.97;;;11.30;100.00
65329;BME280;51941;52.210;5.158;2023-03-22T10:48:13;100456.84;;;11.71;100.00
65329;BME280;51941;52.210;5.158;2023-03-22T10:50:52;100461.75;;;11.85;100.00
65329;BME280;51941;52.210;5.158;2023-03-22T10:53:27;100420.72;;;11.65;100.00
65329;BME280;51941;52.210;5.158;2023-03-22T10:55:55;100447.53;;;11.91;100.00
65329;BME280;51941;52.210;5.158;2023-03-22T10:58:28;100447.69;;;12.06;100.00
65329;BME280;51941;52.210;5.158;2023-03-22T11:00:58;100453.69;;;12.18;100.00
65329;BME280;51941;52.210;5.158;2023-03-22T11:03:27;100445.72;;;12.18;100.00
65329;BME280;51941;52.210;5.158;2023-03-22T11:05:58;100449.25;;;12.29;100.00
65329;BME280;51941;52.210;5.158;2023-03-22T11:08:25;100463.63;;;12.33;100.00
65329;BME280;51941;52.210;5.158;2023-03-22T11:10:52;100442.03;;;12.19;100.00
65329;BME280;51941;52.210;5.158;2023-03-22T11:13:24;100458.91;;;12.40;100.00
65329;BME280;51941;52.210;5.158;2023-03-22T11:15:53;100448.06;;;12.41;100.00
65329;BME280;51941;52.210;5.158;2023-03-22T11:18:24;100443.84;;;12.45;100.00
65329;BME280;51941;52.210;5.158;2023-03-22T11:20:59;100444.59;;;12.41;100.00
65329;BME280;51941;52.210;5.158;2023-03-22T11:23:49;100440.22;;;12.56;100.00
65329;BME280;51941;52.210;5.158;2023-03-22T11:26:29;100453.31;;;12.63;100.00
65329;BME280;51941;52.210;5.158;2023-03-22T11:29:09;100450.59;;;12.58;100.00
65329;BME280;51941;52.210;5.158;2023-03-22T11:31:50;100424.06;;;12.31;100.00
65329;BME280;51941;52.210;5.158;2023-03-22T11:34:20;100465.72;;;12.57;100.00
65329;BME280;51941;52.210;5.158;2023-03-22T11:36:47;100467.53;;;12.52;100.00
65329;BME280;51941;52.210;5.158;2023-03-22T11:39:21;100460.63;;;12.51;100.00
65329;BME280;51941;52.210;5.158;2023-03-22T11:41:48;100482.41;;;12.53;100.00
65329;BME280;51941;52.210;5.158;2023-03-22T11:44:18;100490.38;;;12.53;100.00
65329;BME280;51941;52.210;5.158;2023-03-22T11:46:51;100491.56;;;12.40;100.00
65329;BME280;51941;52.210;5.158;2023-03-22T11:49:26;100496.94;;;12.45;100.00
65329;BME280;51941;52.210;5.158;2023-03-22T11:51:54;100497.34;;;12.32;100.00
65329;BME280;51941;52.210;5.158;2023-03-22T11:54:27;100479.88;;;12.36;100.00
65329;BME280;51941;52.210;5.158;2023-03-22T11:56:57;100481.72;;;12.36;100.00
65329;BME280;51941;52.210;5.158;2023-03-22T11:59:28;100489.13;;;12.34;100.00
65329;BME280;51941;52.210;5.158;2023-03-22T12:01:59;100475.06;;;12.33;100.00
65329;BME280;51941;52.210;5.158;2023-03-22T12:04:33;100472.84;;;12.25;100.00
65329;BME280;51941;52.210;5.158;2023-03-22T12:07:09;100408.66;;;11.79;100.00
65329;BME280;51941;52.210;5.158;2023-03-22T12:09:41;100473.66;;;12.26;100.00
65329;BME280;51941;52.210;5.158;2023-03-22T12:12:13;100468.84;;;12.23;100.00
65329;BME280;51941;52.210;5.158;2023-03-22T12:14:46;100485.59;;;12.28;100.00
65329;BME280;51941;52.210;5.158;2023-03-22T12:17:20;100478.19;;;12.30;100.00
65329;BME280;51941;52.210;5.158;2023-03-22T12:19:55;100481.84;;;12.24;100.00
65329;BME280;51941;52.210;5.158;2023-03-22T12:22:28;100485.56;;;12.23;100.00
65329;BME280;51941;52.210;5.158;2023-03-22T12:24:55;100483.72;;;12.24;100.00
65329;BME280;51941;52.210;5.158;2023-03-22T12:27:26;100484.31;;;12.31;100.00
65329;BME280;51941;52.210;5.158;2023-03-22T12:29:59;100472.28;;;12.23;100.00
65329;BME280;51941;52.210;5.158;2023-03-22T12:32:28;100481.53;;;12.21;100.00
65329;BME280;51941;52.210;5.158;2023-03-22T12:34:57;100475.72;;;12.18;100.00
65329;BME280;51941;52.210;5.158;2023-03-22T12:37:26;100476.31;;;12.26;100.00
65329;BME280;51941;52.210;5.158;2023-03-22T12:39:57;100443.22;;;12.11;100.00
65329;BME280;51941;52.210;5.158;2023-03-22T12:42:29;100437.91;;;12.11;100.00
65329;BME280;51941;52.210;5.158;2023-03-22T12:45:00;100465.00;;;12.35;100.00
65329;BME280;51941;52.210;5.158;2023-03-22T12:47:31;100449.06;;;12.35;100.00
65329;BME280;51941;52.210;5.158;2023-03-22T12:50:04;100438.50;;;12.40;100.00
65329;BME280;51941;52.210;5.158;2023-03-22T12:52:36;100445.72;;;12.45;100.00
65329;BME280;51941;52.210;5.158;2023-03-22T12:55:05;100447.59;;;12.49;100.00
65329;BME280;51941;52.210;5.158;2023-03-22T12:57:35;100455.09;;;12.57;100.00
65329;BME280;51941;52.210;5.158;2023-03-22T13:00:04;100453.00;;;12.60;100.00
65329;BME280;51941;52.210;5.158;2023-03-22T13:02:35;100460.41;;;12.57;100.00
65329;BME280;51941;52.210;5.158;2023-03-22T13:05:05;100439.84;;;12.43;100.00
65329;BME280;51941;52.210;5.158;2023-03-22T13:07:38;100465.13;;;12.50;100.00
65329;BME280;51941;52.210;5.158;2023-03-22T13:10:54;100464.56;;;12.48;100.00
65329;BME280;51941;52.210;5.158;2023-03-22T13:13:39;100467.78;;;12.50;100.00
65329;BME280;51941;52.210;5.158;2023-03-22T13:16:14;100465.44;;;12.54;100.00
65329;BME280;51941;52.210;5.158;2023-03-22T13:18:57;100449.06;;;12.35;100.00
65329;BME280;51941;52.210;5.158;2023-03-22T13:21:27;100464.06;;;12.51;100.00
65329;BME280;51941;52.210;5.158;2023-03-22T13:23:57;100471.25;;;12.51;100.00
65329;BME280;51941;52.210;5.158;2023-03-22T13:26:34;100440.31;;;12.35;100.00